Time;durP1;ratioP1;P1;durP2;ratioP2;P2;SDS_P1;SDS_P2;PMS_P1;PMS_P2;Temp;Humidity;BMP_temperature;BMP_pressure;BME280_temperature;BME280_humidity;BME280_pressure;Samples;Min_cycle;Max_cycle;Signal;HPM_P1;HPM_P2
2021/11/21 00:01:45;;;;;;;31.37;14.82;;;7.60;99.90;;;;;;6714130;88;20190;-79
2021/11/21 00:11:45;;;;;;;30.58;15.23;;;7.60;99.90;;;;;;6715360;88;20595;-79
2021/11/21 00:21:46;;;;;;;33.65;16.50;;;7.50;99.90;;;;;;6712100;88;20649;-79
2021/11/21 00:31:46;;;;;;;37.40;17.08;;;7.50;99.90;;;;;;6711163;88;20193;-79
2021/11/21 00:41:47;;;;;;;38.30;18.42;;;7.50;99.90;;;;;;6711754;88;20289;-79
2021/11/21 00:51:49;;;;;;;38.88;17.27;;;7.50;99.90;;;;;;6710011;88;20227;-80
2021/11/21 01:01:51;;;;;;;42.53;17.75;;;7.50;99.90;;;;;;6714696;88;20189;-83
2021/11/21 01:11:52;;;;;;;35.08;15.88;;;7.50;99.90;;;;;;6715584;88;20221;-78
2021/11/21 01:21:53;;;;;;;29.12;14.00;;;7.50;99.90;;;;;;6711900;88;20644;-78
2021/11/21 01:31:53;;;;;;;25.63;12.40;;;7.70;99.90;;;;;;6712706;88;20665;-78
2021/11/21 01:41:54;;;;;;;20.17;10.27;;;7.60;99.90;;;;;;6712586;88;20528;-78
2021/11/21 01:51:54;;;;;;;18.00;9.23;;;7.70;99.90;;;;;;6712954;88;20561;-77
2021/11/21 02:01:55;;;;;;;14.77;8.15;;;7.70;99.90;;;;;;6716714;88;20209;-78
2021/11/21 02:11:56;;;;;;;15.85;7.97;;;7.80;99.90;;;;;;6714243;88;20201;-78
2021/11/21 02:21:56;;;;;;;14.23;6.82;;;7.90;99.90;;;;;;6718395;88;20836;-81
2021/11/21 02:31:57;;;;;;;10.73;5.90;;;7.80;99.90;;;;;;6718034;88;20210;-79
2021/11/21 02:41:57;;;;;;;11.82;5.50;;;8.00;99.90;;;;;;6718629;88;20239;-78
2021/11/21 02:51:58;;;;;;;11.27;5.68;;;8.10;99.90;;;;;;6718790;88;20201;-80
2021/11/21 03:02:00;;;;;;;21.02;10.40;;;8.10;99.90;;;;;;6715971;88;20809;-82
2021/11/21 03:12:01;;;;;;;19.45;9.73;;;8.00;99.90;;;;;;6716980;88;20293;-78
2021/11/21 03:22:02;;;;;;;18.20;9.07;;;8.00;99.90;;;;;;6717716;88;20272;-81
2021/11/21 03:32:03;;;;;;;19.12;9.55;;;7.90;99.90;;;;;;6716650;88;20321;-79
2021/11/21 03:42:04;;;;;;;21.73;10.70;;;8.10;99.90;;;;;;6714497;88;20246;-78
2021/11/21 03:52:05;;;;;;;24.45;11.75;;;7.90;99.90;;;;;;6717775;88;20654;-79
2021/11/21 04:02:06;;;;;;;27.73;11.85;;;7.80;99.90;;;;;;6718451;88;20197;-81
2021/11/21 04:12:07;;;;;;;23.23;12.10;;;7.60;99.90;;;;;;6718502;88;20205;-81
2021/11/21 04:22:08;;;;;;;22.77;11.15;;;7.60;99.90;;;;;;6716886;88;20214;-80
2021/11/21 04:32:08;;;;;;;23.58;10.40;;;7.70;99.90;;;;;;6712030;88;20189;-81
2021/11/21 04:42:09;;;;;;;22.55;10.85;;;7.80;99.90;;;;;;6715913;88;20283;-81
2021/11/21 04:52:10;;;;;;;26.10;11.18;;;7.70;99.90;;;;;;6716955;88;20240;-80
2021/11/21 05:02:11;;;;;;;24.77;11.57;;;7.70;99.90;;;;;;6716944;88;20197;-80
2021/11/21 05:12:12;;;;;;;26.00;11.38;;;7.60;99.90;;;;;;6715759;88;20716;-79
2021/11/21 05:22:13;;;;;;;21.05;10.90;;;7.50;99.90;;;;;;6716164;88;20219;-79
2021/11/21 05:32:14;;;;;;;23.23;10.63;;;7.50;99.90;;;;;;6716661;88;20279;-79
2021/11/21 05:42:14;;;;;;;20.58;9.23;;;7.50;99.90;;;;;;6711303;88;20204;-78
2021/11/21 06:03:17;;;;;;;20.73;9.20;;;7.70;99.90;;;;;;6747991;88;20502;-79
2021/11/21 06:13:17;;;;;;;17.80;9.32;;;7.60;99.90;;;;;;6746962;88;20216;-79
2021/11/21 06:23:18;;;;;;;18.67;9.00;;;7.70;99.90;;;;;;6747350;88;20204;-79
2021/11/21 06:33:19;;;;;;;20.12;9.38;;;7.60;99.90;;;;;;6747163;88;20193;-78
2021/11/21 06:43:19;;;;;;;22.20;9.20;;;7.70;99.90;;;;;;6746734;88;20176;-79
2021/11/21 06:53:22;;;;;;;20.95;9.90;;;7.70;99.90;;;;;;6746675;88;20193;-79
2021/11/21 07:03:22;;;;;;;20.95;9.43;;;7.50;99.90;;;;;;6693183;88;20198;-76
2021/11/21 07:13:23;;;;;;;17.87;8.27;;;7.60;99.90;;;;;;6706508;88;20211;-77
2021/11/21 07:23:25;;;;;;;18.55;8.43;;;7.70;99.90;;;;;;6737964;88;21027;-78
2021/11/21 07:33:25;;;;;;;20.65;9.20;;;7.60;99.90;;;;;;6735170;88;20193;-80
2021/11/21 07:43:26;;;;;;;21.70;10.50;;;7.80;99.90;;;;;;6742806;88;20187;-80
2021/11/21 07:53:27;;;;;;;24.35;11.10;;;7.60;99.90;;;;;;6744852;88;20228;-78
2021/11/21 08:03:27;;;;;;;24.40;11.40;;;7.60;99.90;;;;;;6741703;88;20210;-79
2021/11/21 08:13:28;;;;;;;24.30;10.05;;;7.70;99.90;;;;;;6707629;88;20180;-81
2021/11/21 08:23:29;;;;;;;19.87;9.50;;;7.70;99.90;;;;;;6734662;88;20174;-77
2021/11/21 08:33:29;;;;;;;21.23;9.15;;;7.90;99.90;;;;;;6740498;88;22659;-78
2021/11/21 08:43:30;;;;;;;16.23;8.52;;;8.00;99.90;;;;;;6729573;88;20174;-79
2021/11/21 08:53:31;;;;;;;18.92;9.05;;;8.00;99.90;;;;;;6734815;88;20193;-78
2021/11/21 09:03:31;;;;;;;18.05;8.55;;;8.00;99.90;;;;;;6728860;88;20214;-78
2021/11/21 09:13:32;;;;;;;18.42;8.20;;;8.00;99.90;;;;;;6725762;88;20723;-78
2021/11/21 09:23:32;;;;;;;19.62;9.25;;;8.00;99.90;;;;;;6714558;88;20314;-77
2021/11/21 09:33:33;;;;;;;19.52;9.45;;;8.20;99.90;;;;;;6736346;88;20284;-79
2021/11/21 09:43:34;;;;;;;20.73;9.82;;;8.10;99.90;;;;;;6743171;88;20226;-79
2021/11/21 09:53:35;;;;;;;21.08;9.23;;;8.10;99.90;;;;;;6740298;88;20177;-78
2021/11/21 10:03:45;;;;;;;18.42;9.43;;;8.20;99.90;;;;;;6729419;88;20418;-76
2021/11/21 10:13:47;;;;;;;19.95;9.23;;;8.20;99.90;;;;;;6731668;88;20300;-77
2021/11/21 10:23:48;;;;;;;12.57;6.15;;;8.30;99.90;;;;;;6727934;88;20202;-78
2021/11/21 10:33:58;;;;;;;9.70;5.10;;;8.30;99.90;;;;;;6733643;88;20645;-79
2021/11/21 10:44:12;;;;;;;10.52;4.90;;;8.20;99.90;;;;;;6727323;88;20352;-79
2021/11/21 10:54:24;;;;;;;8.90;4.50;;;8.30;99.90;;;;;;6725092;88;20233;-78
2021/11/21 11:04:25;;;;;;;9.70;4.87;;;8.20;99.90;;;;;;6722108;88;20183;-80
2021/11/21 11:14:25;;;;;;;10.80;4.97;;;8.10;99.90;;;;;;6729941;88;20190;-79
2021/11/21 11:24:27;;;;;;;15.20;7.07;;;8.20;99.90;;;;;;6737772;88;20208;-81
2021/11/21 11:34:36;;;;;;;16.25;7.43;;;8.20;99.90;;;;;;6734907;88;20216;-78
2021/11/21 11:44:54;;;;;;;18.12;8.63;;;8.20;99.90;;;;;;6734825;88;20625;-79
2021/11/21 11:55:08;;;;;;;19.02;9.15;;;8.30;99.90;;;;;;6719747;88;20228;-78
2021/11/21 12:05:09;;;;;;;18.20;8.93;;;8.30;99.90;;;;;;6725521;88;20220;-78
2021/11/21 12:15:28;;;;;;;17.85;9.70;;;8.30;99.90;;;;;;6714561;88;20279;-78
2021/11/21 12:25:29;;;;;;;24.15;10.18;;;8.30;99.90;;;;;;6721171;88;20293;-77
2021/11/21 12:35:35;;;;;;;22.77;11.10;;;8.30;99.90;;;;;;6727190;88;20204;-79
2021/11/21 12:45:54;;;;;;;23.33;11.45;;;8.50;99.90;;;;;;6729943;88;20189;-78
2021/11/21 12:55:58;;;;;;;28.08;12.15;;;8.40;99.90;;;;;;6736463;88;20204;-78
2021/11/21 13:06:14;;;;;;;27.15;12.02;;;8.40;99.90;;;;;;6726365;88;20214;-78
2021/11/21 13:16:23;;;;;;;31.70;13.97;;;8.50;99.90;;;;;;6729439;88;20605;-78
2021/11/21 13:26:24;;;;;;;29.08;13.40;;;8.60;99.90;;;;;;6724228;88;20237;-79
2021/11/21 13:36:38;;;;;;;30.27;13.68;;;8.50;99.90;;;;;;6726372;88;20190;-79
2021/11/21 13:46:42;;;;;;;30.90;13.90;;;8.40;99.90;;;;;;6721862;88;20195;-80
2021/11/21 13:56:44;;;;;;;28.75;13.02;;;8.50;99.90;;;;;;6734677;88;20178;-78
2021/11/21 14:06:45;;;;;;;27.80;12.80;;;8.50;99.90;;;;;;6729919;88;20204;-78
2021/11/21 14:16:54;;;;;;;25.88;11.75;;;8.40;99.90;;;;;;6720165;88;20190;-78
2021/11/21 14:27:09;;;;;;;26.95;11.57;;;8.40;99.90;;;;;;6724561;88;20219;-78
2021/11/21 14:37:12;;;;;;;25.67;10.93;;;8.40;99.90;;;;;;6730129;88;20297;-78
2021/11/21 14:47:16;;;;;;;23.58;11.40;;;8.40;99.90;;;;;;6723117;88;20245;-76
2021/11/21 14:57:20;;;;;;;24.75;10.82;;;8.30;99.90;;;;;;6699520;88;20213;-77
2021/11/21 15:07:20;;;;;;;25.17;10.35;;;8.40;99.90;;;;;;6698445;88;20182;-76
2021/11/21 15:17:21;;;;;;;18.30;9.02;;;8.30;99.90;;;;;;6704726;88;20205;-77
2021/11/21 15:27:21;;;;;;;21.05;7.97;;;8.30;99.90;;;;;;6706982;88;20181;-77
2021/11/21 15:37:22;;;;;;;21.25;7.37;;;8.20;99.90;;;;;;6716730;88;20513;-78
2021/11/21 15:47:22;;;;;;;17.27;7.40;;;8.20;99.90;;;;;;6708811;88;20201;-78
2021/11/21 15:57:25;;;;;;;17.37;7.57;;;8.20;99.90;;;;;;6708975;88;20194;-77
2021/11/21 16:07:25;;;;;;;22.08;8.77;;;8.10;99.90;;;;;;6704599;88;20205;-78
2021/11/21 16:17:26;;;;;;;23.75;8.93;;;8.10;99.90;;;;;;6712896;88;20202;-77
2021/11/21 16:27:28;;;;;;;21.95;9.13;;;8.10;99.90;;;;;;6704811;88;20665;-78
2021/11/21 16:37:33;;;;;;;26.92;10.10;;;8.10;99.90;;;;;;6710816;88;20233;-78
2021/11/21 16:47:34;;;;;;;24.90;10.07;;;8.10;99.90;;;;;;6710124;88;20181;-77
2021/11/21 16:57:34;;;;;;;18.40;7.77;;;8.00;99.90;;;;;;6712595;88;20166;-77
2021/11/21 17:07:35;;;;;;;21.23;7.77;;;8.00;99.90;;;;;;6711809;88;21176;-78
2021/11/21 17:17:37;;;;;;;20.05;6.75;;;8.00;99.90;;;;;;6717378;88;20488;-77
2021/11/21 17:27:39;;;;;;;17.90;5.85;;;8.00;99.90;;;;;;6701466;88;20198;-77
2021/11/21 17:37:40;;;;;;;18.73;6.25;;;8.00;99.90;;;;;;6709771;88;20302;-77
2021/11/21 17:47:41;;;;;;;19.70;5.60;;;7.70;99.90;;;;;;6705465;88;20281;-77
2021/11/21 17:57:44;;;;;;;15.68;4.93;;;7.70;99.90;;;;;;6706038;77;20545;-75
2021/11/21 18:07:44;;;;;;;18.80;4.30;;;7.50;99.90;;;;;;6712526;88;20174;-76
2021/11/21 18:17:46;;;;;;;16.48;3.92;;;7.40;99.90;;;;;;6681184;88;20202;-76
2021/11/21 18:27:47;;;;;;;14.60;3.28;;;7.40;99.90;;;;;;6681070;88;20631;-75
2021/11/21 18:37:49;;;;;;;9.98;3.00;;;7.40;99.90;;;;;;6700191;88;20224;-76
2021/11/21 18:47:50;;;;;;;12.37;3.35;;;7.40;99.90;;;;;;6706395;88;20202;-75
2021/11/21 18:57:51;;;;;;;16.05;3.53;;;7.40;99.90;;;;;;6698045;88;20198;-77
2021/11/21 19:07:53;;;;;;;12.30;2.87;;;7.30;99.90;;;;;;6701374;88;20285;-77
2021/11/21 19:17:55;;;;;;;12.60;2.78;;;7.30;99.90;;;;;;6694792;88;20227;-76
2021/11/21 19:27:56;;;;;;;11.77;3.00;;;7.30;99.90;;;;;;6683655;88;20212;-77
2021/11/21 19:37:57;;;;;;;15.43;4.05;;;7.20;99.90;;;;;;6686892;88;20600;-76
2021/11/21 19:47:59;;;;;;;17.37;3.17;;;7.20;99.90;;;;;;6688558;88;20249;-76
2021/11/21 19:57:59;;;;;;;12.43;3.70;;;7.10;99.90;;;;;;6699604;88;20652;-75
2021/11/21 20:08:00;;;;;;;16.70;3.97;;;7.10;99.90;;;;;;6696505;88;20209;-77
2021/11/21 20:18:01;;;;;;;12.73;3.70;;;7.10;99.90;;;;;;6699394;88;20351;-75
2021/11/21 20:28:05;;;;;;;13.62;4.15;;;7.00;99.90;;;;;;6699394;88;20201;-76
2021/11/21 20:38:06;;;;;;;10.60;3.87;;;6.90;99.90;;;;;;6678891;88;20327;-76
2021/11/21 20:48:06;;;;;;;10.88;4.00;;;6.80;99.90;;;;;;6681998;88;20702;-76
2021/11/21 20:58:08;;;;;;;9.18;4.10;;;6.70;99.90;;;;;;6681848;88;20224;-76
2021/11/21 21:08:09;;;;;;;10.90;4.12;;;6.60;99.90;;;;;;6682040;88;20261;-76
2021/11/21 21:18:09;;;;;;;9.43;3.75;;;6.40;99.90;;;;;;6689717;88;20315;-76
2021/11/21 21:28:10;;;;;;;10.25;3.72;;;6.30;99.90;;;;;;6707105;88;20320;-75
2021/11/21 21:38:10;;;;;;;12.18;3.97;;;6.30;99.90;;;;;;6712673;88;20506;-75
2021/11/21 21:48:11;;;;;;;10.80;4.25;;;6.20;99.90;;;;;;6714975;88;20206;-74
2021/11/21 21:58:12;;;;;;;9.37;3.73;;;6.00;99.90;;;;;;6706902;88;20225;-76
2021/11/21 22:08:13;;;;;;;10.32;4.68;;;5.80;99.90;;;;;;6715755;88;20502;-76
2021/11/21 22:18:14;;;;;;;12.20;4.95;;;5.60;99.90;;;;;;6715571;88;20237;-76
2021/11/21 22:28:15;;;;;;;10.68;4.60;;;5.40;99.90;;;;;;6716173;88;20193;-77
2021/11/21 22:38:16;;;;;;;11.77;4.97;;;5.20;99.90;;;;;;6715938;88;20204;-77
2021/11/21 22:48:16;;;;;;;13.93;6.55;;;5.10;99.90;;;;;;6701893;88;20219;-75
2021/11/21 22:58:17;;;;;;;13.20;5.65;;;5.00;99.90;;;;;;6697892;88;20216;-75
2021/11/21 23:08:19;;;;;;;14.15;6.18;;;4.80;99.90;;;;;;6698388;88;20238;-77
2021/11/21 23:18:20;;;;;;;16.48;7.03;;;4.70;99.90;;;;;;6698831;88;20193;-76
2021/11/21 23:28:21;;;;;;;18.50;6.70;;;4.70;99.90;;;;;;6699950;88;20201;-76
2021/11/21 23:38:22;;;;;;;17.25;7.60;;;4.60;99.90;;;;;;6701438;88;20939;-75
2021/11/21 23:48:23;;;;;;;23.62;9.70;;;4.60;99.90;;;;;;6701558;88;20206;-76
2021/11/21 23:58:23;;;;;;;24.37;10.48;;;4.50;99.90;;;;;;6703058;88;20333;-75
